Terminal Aerodrome Forecast
Issued by NWS

Current Version | Previous Version | Text Only | Print | Product List | Glossary On
Versions: 1 2 3 4 5 6 7 8 9 10 11 12 13 14 15 16 17 18 19 20 21 22 23
000
FTUS45 KGJT 201133
TAFRIL
TAF
KRIL 201133Z 2012/2112 00000KT P6SM SCT100 BKN120
     FM201900 24004KT P6SM VCSH SCT050 OVC080
     FM202300 26005KT P6SM -RA SCT050 OVC060
     FM210100 25005KT P6SM -RASN OVC040
     FM210300 28005KT 2SM -SNRA BKN020 OVC030
     FM210600 27005KT 1 1/2SM -SN BR BKN010 BKN030=

USA.gov is the U.S. government's official web portal to all federal, state and local government web resources and services.